Mae Sariang, Thailand
Current Conditions -  °F | °C
As of 12:00 AM on Friday 24 Oct 2014 (Local Time) from VTCC Reporting Station
Light Rain Light Rain  
Wind Chill: 73°   Ceiling: 3200
Heat Index: 73°   Visibility: 5mi
Dew Point: 72°   Wind: 1mph
Humidity: 94%   Direction: 30°NNE
Pressure: 30"   Gusts: NA
Location:  18.15°N, 97.93°E
Report Text: VTCC 231700Z 03001KT 8000 -RA FEW018 BKN032 23/22 Q1016 A3001 NOSIG
Loading
Personal Weather Stations






























Interactive Weather Map New forecast layout! Learn more

10-Day Weather Forecast

Advertisements
Track Severe Weather on mobile